sensor_id;sensor_type;location;lat;lon;timestamp;pressure;altitude;pressure_sealevel;temperature;humidity
83424;BME280;73355;49.044;8.686;2024-02-21T00:02:20;100691.63;;;8.99;66.83
83424;BME280;73355;49.044;8.686;2024-02-21T00:04:46;100680.78;;;9.03;66.87
83424;BME280;73355;49.044;8.686;2024-02-21T00:07:11;100681.59;;;9.07;66.61
83424;BME280;73355;49.044;8.686;2024-02-21T00:09:36;100669.19;;;9.06;66.39
83424;BME280;73355;49.044;8.686;2024-02-21T00:12:02;100669.59;;;9.08;65.95
83424;BME280;73355;49.044;8.686;2024-02-21T00:14:28;100667.66;;;9.08;65.76
83424;BME280;73355;49.044;8.686;2024-02-21T00:16:53;100661.88;;;9.10;65.73
83424;BME280;73355;49.044;8.686;2024-02-21T00:19:18;100661.91;;;9.13;65.71
83424;BME280;73355;49.044;8.686;2024-02-21T00:21:44;100657.25;;;9.14;65.71
83424;BME280;73355;49.044;8.686;2024-02-21T00:24:09;100643.69;;;9.18;65.55
83424;BME280;73355;49.044;8.686;2024-02-21T00:26:34;100638.69;;;9.20;65.36
83424;BME280;73355;49.044;8.686;2024-02-21T00:28:59;100633.63;;;9.18;64.85
83424;BME280;73355;49.044;8.686;2024-02-21T00:31:25;100642.16;;;9.17;64.84
83424;BME280;73355;49.044;8.686;2024-02-21T00:33:50;100630.91;;;9.18;64.61
83424;BME280;73355;49.044;8.686;2024-02-21T00:36:15;100635.22;;;9.23;64.91
83424;BME280;73355;49.044;8.686;2024-02-21T00:38:41;100638.34;;;9.25;64.54
83424;BME280;73355;49.044;8.686;2024-02-21T00:41:06;100637.94;;;9.23;64.42
83424;BME280;73355;49.044;8.686;2024-02-21T00:43:31;100631.34;;;9.24;64.37
83424;BME280;73355;49.044;8.686;2024-02-21T00:45:57;100620.91;;;9.26;64.53
83424;BME280;73355;49.044;8.686;2024-02-21T00:48:22;100619.41;;;9.28;64.56
83424;BME280;73355;49.044;8.686;2024-02-21T00:50:47;100613.22;;;9.31;64.57
83424;BME280;73355;49.044;8.686;2024-02-21T00:53:13;100608.97;;;9.34;64.68
83424;BME280;73355;49.044;8.686;2024-02-21T00:55:38;100609.38;;;9.36;64.56
83424;BME280;73355;49.044;8.686;2024-02-21T00:58:03;100610.97;;;9.40;64.57
83424;BME280;73355;49.044;8.686;2024-02-21T01:00:29;100602.06;;;9.43;64.65
83424;BME280;73355;49.044;8.686;2024-02-21T01:02:54;100601.72;;;9.45;64.73
83424;BME280;73355;49.044;8.686;2024-02-21T01:05:19;100595.09;;;9.46;64.47
83424;BME280;73355;49.044;8.686;2024-02-21T01:07:45;100582.28;;;9.46;64.33
83424;BME280;73355;49.044;8.686;2024-02-21T01:10:10;100587.78;;;9.50;64.40
83424;BME280;73355;49.044;8.686;2024-02-21T01:12:36;100587.38;;;9.51;64.49
83424;BME280;73355;49.044;8.686;2024-02-21T01:15:02;100568.78;;;9.53;64.57
83424;BME280;73355;49.044;8.686;2024-02-21T01:17:27;100561.03;;;9.56;64.44
83424;BME280;73355;49.044;8.686;2024-02-21T01:19:52;100565.31;;;9.57;64.64
83424;BME280;73355;49.044;8.686;2024-02-21T01:22:17;100558.69;;;9.58;65.00
83424;BME280;73355;49.044;8.686;2024-02-21T01:24:43;100552.13;;;9.59;65.21
83424;BME280;73355;49.044;8.686;2024-02-21T01:27:08;100546.28;;;9.57;64.68
83424;BME280;73355;49.044;8.686;2024-02-21T01:29:33;100545.50;;;9.56;64.72
83424;BME280;73355;49.044;8.686;2024-02-21T01:31:59;100541.25;;;9.59;65.15
83424;BME280;73355;49.044;8.686;2024-02-21T01:34:24;100539.69;;;9.58;65.14
83424;BME280;73355;49.044;8.686;2024-02-21T01:36:49;100538.13;;;9.57;65.00
83424;BME280;73355;49.044;8.686;2024-02-21T01:39:15;100530.75;;;9.57;65.16
83424;BME280;73355;49.044;8.686;2024-02-21T01:41:40;100523.38;;;9.58;65.36
83424;BME280;73355;49.044;8.686;2024-02-21T01:44:05;100524.94;;;9.59;65.01
83424;BME280;73355;49.044;8.686;2024-02-21T01:46:31;100524.97;;;9.62;65.54
83424;BME280;73355;49.044;8.686;2024-02-21T01:48:57;100518.00;;;9.65;65.87
83424;BME280;73355;49.044;8.686;2024-02-21T01:51:23;100507.88;;;9.62;65.40
83424;BME280;73355;49.044;8.686;2024-02-21T01:53:50;100510.91;;;9.53;65.84
83424;BME280;73355;49.044;8.686;2024-02-21T01:56:16;100519.84;;;9.50;66.05
83424;BME280;73355;49.044;8.686;2024-02-21T01:58:42;100512.84;;;9.49;66.21
83424;BME280;73355;49.044;8.686;2024-02-21T02:01:09;100501.16;;;9.45;66.44
83424;BME280;73355;49.044;8.686;2024-02-21T02:03:35;100502.69;;;9.42;66.61
83424;BME280;73355;49.044;8.686;2024-02-21T02:06:00;100499.16;;;9.38;66.91
83424;BME280;73355;49.044;8.686;2024-02-21T02:08:26;100500.31;;;9.37;67.37
83424;BME280;73355;49.044;8.686;2024-02-21T02:10:52;100510.81;;;9.39;67.44
83424;BME280;73355;49.044;8.686;2024-02-21T02:13:17;100515.84;;;9.40;67.26
83424;BME280;73355;49.044;8.686;2024-02-21T02:18:08;100515.47;;;9.38;67.16
83424;BME280;73355;49.044;8.686;2024-02-21T02:20:34;100507.28;;;9.35;67.05
83424;BME280;73355;49.044;8.686;2024-02-21T02:22:59;100503.38;;;9.32;67.18
83424;BME280;73355;49.044;8.686;2024-02-21T02:25:26;100497.16;;;9.32;67.44
83424;BME280;73355;49.044;8.686;2024-02-21T02:27:51;100496.78;;;9.33;67.27
83424;BME280;73355;49.044;8.686;2024-02-21T02:30:17;100487.50;;;9.38;67.53
83424;BME280;73355;49.044;8.686;2024-02-21T02:32:45;100489.09;;;9.42;67.46
83424;BME280;73355;49.044;8.686;2024-02-21T02:35:14;100486.81;;;9.48;67.46
83424;BME280;73355;49.044;8.686;2024-02-21T02:37:39;100483.34;;;9.51;67.41
83424;BME280;73355;49.044;8.686;2024-02-21T02:40:06;100484.94;;;9.56;67.58
83424;BME280;73355;49.044;8.686;2024-02-21T02:42:32;100487.66;;;9.59;67.46
83424;BME280;73355;49.044;8.686;2024-02-21T02:44:57;100487.69;;;9.63;67.41
83424;BME280;73355;49.044;8.686;2024-02-21T02:47:23;100481.09;;;9.64;67.62
83424;BME280;73355;49.044;8.686;2024-02-21T02:49:48;100467.50;;;9.60;67.56
83424;BME280;73355;49.044;8.686;2024-02-21T02:52:18;100469.78;;;9.58;67.31
83424;BME280;73355;49.044;8.686;2024-02-21T02:54:44;100465.13;;;9.55;67.65
83424;BME280;73355;49.044;8.686;2024-02-21T02:57:10;100455.81;;;9.56;67.76
83424;BME280;73355;49.044;8.686;2024-02-21T02:59:35;100453.47;;;9.54;67.73
83424;BME280;73355;49.044;8.686;2024-02-21T03:02:00;100439.09;;;9.50;66.89
83424;BME280;73355;49.044;8.686;2024-02-21T03:04:26;100435.97;;;9.48;66.92
83424;BME280;73355;49.044;8.686;2024-02-21T03:06:51;100432.03;;;9.46;66.98
83424;BME280;73355;49.044;8.686;2024-02-21T03:09:16;100441.34;;;9.41;66.90
83424;BME280;73355;49.044;8.686;2024-02-21T03:11:42;100435.84;;;9.34;66.67
83424;BME280;73355;49.044;8.686;2024-02-21T03:14:09;100433.13;;;9.31;66.67
83424;BME280;73355;49.044;8.686;2024-02-21T03:16:34;100431.56;;;9.30;66.56
83424;BME280;73355;49.044;8.686;2024-02-21T03:19:00;100429.25;;;9.32;67.05
83424;BME280;73355;49.044;8.686;2024-02-21T03:21:25;100426.53;;;9.32;66.94
83424;BME280;73355;49.044;8.686;2024-02-21T03:23:50;100421.91;;;9.36;67.05
83424;BME280;73355;49.044;8.686;2024-02-21T03:26:15;100423.09;;;9.38;67.00
83424;BME280;73355;49.044;8.686;2024-02-21T03:28:42;100430.09;;;9.39;67.17
83424;BME280;73355;49.044;8.686;2024-02-21T03:31:11;100416.06;;;9.34;66.89
83424;BME280;73355;49.044;8.686;2024-02-21T03:33:37;100421.50;;;9.34;67.02
83424;BME280;73355;49.044;8.686;2024-02-21T03:36:02;100414.13;;;9.34;67.06
83424;BME280;73355;49.044;8.686;2024-02-21T03:38:29;100415.28;;;9.33;67.26
83424;BME280;73355;49.044;8.686;2024-02-21T03:40:54;100409.81;;;9.30;67.28
83424;BME280;73355;49.044;8.686;2024-02-21T03:43:19;100417.53;;;9.24;67.46
83424;BME280;73355;49.044;8.686;2024-02-21T03:45:44;100410.94;;;9.22;67.82
83424;BME280;73355;49.044;8.686;2024-02-21T03:48:09;100410.13;;;9.18;67.63
83424;BME280;73355;49.044;8.686;2024-02-21T03:50:35;100400.81;;;9.15;67.81
83424;BME280;73355;49.044;8.686;2024-02-21T03:53:00;100388.00;;;9.16;67.85
83424;BME280;73355;49.044;8.686;2024-02-21T03:55:25;100372.88;;;9.18;67.97
83424;BME280;73355;49.044;8.686;2024-02-21T03:57:50;100372.50;;;9.20;67.81
83424;BME280;73355;49.044;8.686;2024-02-21T04:00:16;100369.81;;;9.23;67.89
83424;BME280;73355;49.044;8.686;2024-02-21T04:02:42;100372.53;;;9.23;67.79
83424;BME280;73355;49.044;8.686;2024-02-21T04:05:07;100377.16;;;9.19;67.92
83424;BME280;73355;49.044;8.686;2024-02-21T04:07:36;100372.44;;;9.12;68.12
83424;BME280;73355;49.044;8.686;2024-02-21T04:10:01;100375.16;;;9.12;68.34
83424;BME280;73355;49.044;8.686;2024-02-21T04:12:27;100378.66;;;9.13;68.29
83424;BME280;73355;49.044;8.686;2024-02-21T04:14:52;100376.72;;;9.13;68.30
83424;BME280;73355;49.044;8.686;2024-02-21T04:17:17;100390.28;;;9.10;68.50
83424;BME280;73355;49.044;8.686;2024-02-21T04:19:43;100393.38;;;9.05;68.45
83424;BME280;73355;49.044;8.686;2024-02-21T04:22:08;100398.34;;;8.99;68.61
83424;BME280;73355;49.044;8.686;2024-02-21T04:24:33;100408.03;;;8.97;68.59
83424;BME280;73355;49.044;8.686;2024-02-21T04:26:58;100406.09;;;8.97;68.33
83424;BME280;73355;49.044;8.686;2024-02-21T04:29:24;100399.13;;;9.00;68.29
83424;BME280;73355;49.044;8.686;2024-02-21T04:31:49;100406.53;;;9.03;68.38
83424;BME280;73355;49.044;8.686;2024-02-21T04:34:14;100401.88;;;9.07;67.77
83424;BME280;73355;49.044;8.686;2024-02-21T04:36:39;100391.81;;;9.07;67.54
83424;BME280;73355;49.044;8.686;2024-02-21T04:39:05;100389.47;;;9.06;67.35
83424;BME280;73355;49.044;8.686;2024-02-21T04:41:30;100396.84;;;9.05;67.13
83424;BME280;73355;49.044;8.686;2024-02-21T04:43:55;100390.59;;;8.98;66.69
83424;BME280;73355;49.044;8.686;2024-02-21T04:46:20;100393.59;;;8.89;65.99
83424;BME280;73355;49.044;8.686;2024-02-21T04:48:46;100396.28;;;8.82;65.10
83424;BME280;73355;49.044;8.686;2024-02-21T04:51:11;100390.00;;;8.75;65.47
83424;BME280;73355;49.044;8.686;2024-02-21T04:53:37;100374.84;;;8.70;65.34
83424;BME280;73355;49.044;8.686;2024-02-21T04:56:02;100380.19;;;8.63;65.61
83424;BME280;73355;49.044;8.686;2024-02-21T04:58:28;100367.69;;;8.55;65.74
83424;BME280;73355;49.044;8.686;2024-02-21T05:00:53;100359.53;;;8.51;66.04
83424;BME280;73355;49.044;8.686;2024-02-21T05:03:19;100358.75;;;8.47;66.15
83424;BME280;73355;49.044;8.686;2024-02-21T05:05:45;100355.59;;;8.42;66.58
83424;BME280;73355;49.044;8.686;2024-02-21T05:08:10;100345.06;;;8.37;66.66
83424;BME280;73355;49.044;8.686;2024-02-21T05:10:35;100341.53;;;8.33;66.87
83424;BME280;73355;49.044;8.686;2024-02-21T05:13:01;100324.88;;;8.31;67.38
83424;BME280;73355;49.044;8.686;2024-02-21T05:15:26;100317.91;;;8.33;67.37
83424;BME280;73355;49.044;8.686;2024-02-21T05:17:52;100328.81;;;8.37;67.54
83424;BME280;73355;49.044;8.686;2024-02-21T05:20:17;100316.41;;;8.39;67.26
83424;BME280;73355;49.044;8.686;2024-02-21T05:22:42;100311.75;;;8.40;67.16
83424;BME280;73355;49.044;8.686;2024-02-21T05:25:08;100311.75;;;8.36;67.20
83424;BME280;73355;49.044;8.686;2024-02-21T05:27:33;100317.97;;;8.37;67.23
83424;BME280;73355;49.044;8.686;2024-02-21T05:29:59;100315.25;;;8.37;67.56
83424;BME280;73355;49.044;8.686;2024-02-21T05:32:25;100320.66;;;8.37;67.86
83424;BME280;73355;49.044;8.686;2024-02-21T05:34:51;100315.59;;;8.35;67.85
83424;BME280;73355;49.044;8.686;2024-02-21T05:37:16;100318.28;;;8.32;68.22
83424;BME280;73355;49.044;8.686;2024-02-21T05:39:41;100309.72;;;8.29;68.51
83424;BME280;73355;49.044;8.686;2024-02-21T05:42:07;100318.59;;;8.26;68.52
83424;BME280;73355;49.044;8.686;2024-02-21T05:44:33;100313.91;;;8.23;68.78
83424;BME280;73355;49.044;8.686;2024-02-21T05:46:58;100326.69;;;8.23;68.60
83424;BME280;73355;49.044;8.686;2024-02-21T05:49:23;100318.13;;;8.17;69.11
83424;BME280;73355;49.044;8.686;2024-02-21T05:51:49;100323.47;;;8.10;68.65
83424;BME280;73355;49.044;8.686;2024-02-21T05:54:14;100314.84;;;8.01;69.31
83424;BME280;73355;49.044;8.686;2024-02-21T05:56:44;100316.75;;;7.97;69.54
83424;BME280;73355;49.044;8.686;2024-02-21T05:59:09;100305.91;;;7.97;69.63
83424;BME280;73355;49.044;8.686;2024-02-21T06:01:34;100306.63;;;7.94;69.31
83424;BME280;73355;49.044;8.686;2024-02-21T06:04:00;100300.78;;;7.92;69.81
83424;BME280;73355;49.044;8.686;2024-02-21T06:06:25;100301.97;;;7.91;69.48
83424;BME280;73355;49.044;8.686;2024-02-21T06:08:50;100308.56;;;7.94;69.25
83424;BME280;73355;49.044;8.686;2024-02-21T06:11:16;100299.28;;;7.95;69.10
83424;BME280;73355;49.044;8.686;2024-02-21T06:13:41;100301.97;;;7.91;68.97
83424;BME280;73355;49.044;8.686;2024-02-21T06:16:06;100307.69;;;7.86;69.01
83424;BME280;73355;49.044;8.686;2024-02-21T06:18:33;100309.59;;;7.82;68.98
83424;BME280;73355;49.044;8.686;2024-02-21T06:20:58;100306.84;;;7.78;69.50
83424;BME280;73355;49.044;8.686;2024-02-21T06:23:24;100299.50;;;7.79;69.18
83424;BME280;73355;49.044;8.686;2024-02-21T06:25:49;100294.09;;;7.79;69.36
83424;BME280;73355;49.044;8.686;2024-02-21T06:28:14;100289.81;;;7.78;69.32
83424;BME280;73355;49.044;8.686;2024-02-21T06:30:40;100287.06;;;7.74;69.27
83424;BME280;73355;49.044;8.686;2024-02-21T06:33:05;100292.06;;;7.72;69.56
83424;BME280;73355;49.044;8.686;2024-02-21T06:35:30;100288.94;;;7.70;69.72
83424;BME280;73355;49.044;8.686;2024-02-21T06:37:56;100292.06;;;7.69;69.19
83424;BME280;73355;49.044;8.686;2024-02-21T06:40:22;100292.00;;;7.65;69.49
83424;BME280;73355;49.044;8.686;2024-02-21T06:42:48;100295.84;;;7.64;69.80
83424;BME280;73355;49.044;8.686;2024-02-21T06:45:14;100286.13;;;7.60;70.06
83424;BME280;73355;49.044;8.686;2024-02-21T06:47:40;100285.34;;;7.59;69.80
83424;BME280;73355;49.044;8.686;2024-02-21T06:50:05;100285.34;;;7.59;69.77
83424;BME280;73355;49.044;8.686;2024-02-21T06:52:31;100278.00;;;7.60;70.30
83424;BME280;73355;49.044;8.686;2024-02-21T06:54:56;100276.50;;;7.62;70.21
83424;BME280;73355;49.044;8.686;2024-02-21T06:57:21;100263.75;;;7.66;70.44
83424;BME280;73355;49.044;8.686;2024-02-21T06:59:47;100264.16;;;7.68;70.44
83424;BME280;73355;49.044;8.686;2024-02-21T07:02:12;100272.69;;;7.70;70.34
83424;BME280;73355;49.044;8.686;2024-02-21T07:04:37;100271.97;;;7.73;70.33
83424;BME280;73355;49.044;8.686;2024-02-21T07:07:02;100278.53;;;7.72;70.40
83424;BME280;73355;49.044;8.686;2024-02-21T07:09:28;100275.41;;;7.70;70.66
83424;BME280;73355;49.044;8.686;2024-02-21T07:11:57;100276.59;;;7.73;70.70
83424;BME280;73355;49.044;8.686;2024-02-21T07:14:22;100275.84;;;7.76;70.52
83424;BME280;73355;49.044;8.686;2024-02-21T07:16:47;100272.03;;;7.80;70.77
83424;BME280;73355;49.044;8.686;2024-02-21T07:19:13;100263.97;;;7.87;70.68
83424;BME280;73355;49.044;8.686;2024-02-21T07:21:38;100265.97;;;7.94;70.43
83424;BME280;73355;49.044;8.686;2024-02-21T07:24:06;100271.84;;;8.00;70.59
83424;BME280;73355;49.044;8.686;2024-02-21T07:26:31;100270.72;;;8.04;70.62
83424;BME280;73355;49.044;8.686;2024-02-21T07:28:57;100270.00;;;8.11;70.48
83424;BME280;73355;49.044;8.686;2024-02-21T07:31:22;100271.59;;;8.15;70.32
83424;BME280;73355;49.044;8.686;2024-02-21T07:33:47;100268.94;;;8.19;70.34
83424;BME280;73355;49.044;8.686;2024-02-21T07:36:15;100271.66;;;8.22;70.39
83424;BME280;73355;49.044;8.686;2024-02-21T07:38:40;100255.84;;;8.28;70.26
83424;BME280;73355;49.044;8.686;2024-02-21T07:41:05;100257.44;;;8.33;70.26
83424;BME280;73355;49.044;8.686;2024-02-21T07:43:31;100253.22;;;8.35;69.79
83424;BME280;73355;49.044;8.686;2024-02-21T07:45:56;100261.78;;;8.41;70.03
83424;BME280;73355;49.044;8.686;2024-02-21T07:48:22;100267.66;;;8.46;70.06
83424;BME280;73355;49.044;8.686;2024-02-21T07:50:51;100268.09;;;8.52;69.94
83424;BME280;73355;49.044;8.686;2024-02-21T07:53:16;100267.38;;;8.58;69.76
83424;BME280;73355;49.044;8.686;2024-02-21T07:55:42;100262.72;;;8.62;69.86
83424;BME280;73355;49.044;8.686;2024-02-21T07:58:07;100261.22;;;8.68;69.69
83424;BME280;73355;49.044;8.686;2024-02-21T08:00:32;100261.28;;;8.76;69.45
83424;BME280;73355;49.044;8.686;2024-02-21T08:02:58;100260.50;;;8.79;69.43
83424;BME280;73355;49.044;8.686;2024-02-21T08:05:23;100260.94;;;8.84;69.21
83424;BME280;73355;49.044;8.686;2024-02-21T08:07:48;100247.78;;;8.90;69.00
83424;BME280;73355;49.044;8.686;2024-02-21T08:10:14;100240.47;;;8.97;69.05
83424;BME280;73355;49.044;8.686;2024-02-21T08:12:39;100239.72;;;9.04;68.95
83424;BME280;73355;49.044;8.686;2024-02-21T08:15:04;100234.72;;;9.09;68.81
83424;BME280;73355;49.044;8.686;2024-02-21T08:17:30;100230.88;;;9.18;69.02
83424;BME280;73355;49.044;8.686;2024-02-21T08:19:55;100220.03;;;9.21;68.84
83424;BME280;73355;49.044;8.686;2024-02-21T08:22:20;100221.59;;;9.26;68.56
83424;BME280;73355;49.044;8.686;2024-02-21T08:24:46;100224.72;;;9.28;68.50
83424;BME280;73355;49.044;8.686;2024-02-21T08:27:11;100223.16;;;9.30;68.39
83424;BME280;73355;49.044;8.686;2024-02-21T08:29:36;100230.94;;;9.32;68.30
83424;BME280;73355;49.044;8.686;2024-02-21T08:32:02;100216.56;;;9.35;68.41
83424;BME280;73355;49.044;8.686;2024-02-21T08:34:27;100216.19;;;9.40;68.09
83424;BME280;73355;49.044;8.686;2024-02-21T08:36:54;100218.16;;;9.43;68.32
83424;BME280;73355;49.044;8.686;2024-02-21T08:39:20;100217.38;;;9.46;68.26
83424;BME280;73355;49.044;8.686;2024-02-21T08:41:45;100213.13;;;9.48;68.26
83424;BME280;73355;49.044;8.686;2024-02-21T08:44:11;100205.00;;;9.52;68.20
83424;BME280;73355;49.044;8.686;2024-02-21T08:46:36;100203.06;;;9.56;68.25
83424;BME280;73355;49.044;8.686;2024-02-21T08:49:05;100194.91;;;9.60;68.21
83424;BME280;73355;49.044;8.686;2024-02-21T08:51:30;100190.66;;;9.66;68.32
83424;BME280;73355;49.044;8.686;2024-02-21T08:53:55;100189.91;;;9.72;68.04
83424;BME280;73355;49.044;8.686;2024-02-21T08:56:21;100193.81;;;9.78;67.88
83424;BME280;73355;49.044;8.686;2024-02-21T08:58:52;100205.44;;;9.82;67.49
83424;BME280;73355;49.044;8.686;2024-02-21T09:01:17;100198.84;;;9.87;67.86
83424;BME280;73355;49.044;8.686;2024-02-21T09:03:42;100187.97;;;9.87;67.27
83424;BME280;73355;49.044;8.686;2024-02-21T09:06:09;100195.75;;;9.88;67.13
83424;BME280;73355;49.044;8.686;2024-02-21T09:08:35;100193.44;;;9.94;66.91
83424;BME280;73355;49.044;8.686;2024-02-21T09:11:01;100193.03;;;10.03;66.68
83424;BME280;73355;49.044;8.686;2024-02-21T09:13:29;100185.66;;;10.10;66.59
83424;BME280;73355;49.044;8.686;2024-02-21T09:15:55;100183.72;;;10.11;65.92
83424;BME280;73355;49.044;8.686;2024-02-21T09:18:20;100177.47;;;10.14;65.39
83424;BME280;73355;49.044;8.686;2024-02-21T09:20:46;100181.41;;;10.20;65.56
83424;BME280;73355;49.044;8.686;2024-02-21T09:23:12;100172.88;;;10.28;65.42
83424;BME280;73355;49.044;8.686;2024-02-21T09:25:37;100174.00;;;10.38;65.44
83424;BME280;73355;49.044;8.686;2024-02-21T09:28:09;100167.00;;;10.51;65.39
83424;BME280;73355;49.044;8.686;2024-02-21T09:30:35;100170.06;;;10.67;65.29
83424;BME280;73355;49.044;8.686;2024-02-21T09:33:00;100168.50;;;10.81;64.70
83424;BME280;73355;49.044;8.686;2024-02-21T09:35:27;100154.84;;;10.91;64.15
83424;BME280;73355;49.044;8.686;2024-02-21T09:37:53;100155.94;;;11.08;63.63
83424;BME280;73355;49.044;8.686;2024-02-21T09:40:18;100159.75;;;11.25;63.28
83424;BME280;73355;49.044;8.686;2024-02-21T09:42:47;100147.22;;;11.34;62.28
83424;BME280;73355;49.044;8.686;2024-02-21T09:45:21;100143.34;;;11.39;60.97
83424;BME280;73355;49.044;8.686;2024-02-21T09:50:51;100132.66;;;11.62;60.24
83424;BME280;73355;49.044;8.686;2024-02-21T09:53:16;100132.16;;;11.81;60.01
83424;BME280;73355;49.044;8.686;2024-02-21T09:55:43;100130.13;;;11.92;59.87
83424;BME280;73355;49.044;8.686;2024-02-21T09:58:10;100135.53;;;11.99;59.10
83424;BME280;73355;49.044;8.686;2024-02-21T10:00:36;100127.00;;;11.94;58.54
83424;BME280;73355;49.044;8.686;2024-02-21T10:03:04;100120.81;;;11.90;58.09
83424;BME280;73355;49.044;8.686;2024-02-21T10:05:33;100116.97;;;11.80;58.06
83424;BME280;73355;49.044;8.686;2024-02-21T10:07:59;100114.22;;;11.80;58.05
83424;BME280;73355;49.044;8.686;2024-02-21T10:10:24;100113.09;;;11.78;57.36
83424;BME280;73355;49.044;8.686;2024-02-21T10:12:51;100108.84;;;11.73;57.41
83424;BME280;73355;49.044;8.686;2024-02-21T10:15:25;100102.19;;;11.78;56.99
83424;BME280;73355;49.044;8.686;2024-02-21T10:18:01;100090.47;;;11.84;57.21
83424;BME280;73355;49.044;8.686;2024-02-21T10:20:28;100090.78;;;11.90;57.42
83424;BME280;73355;49.044;8.686;2024-02-21T10:23:01;100087.16;;;12.04;57.11
83424;BME280;73355;49.044;8.686;2024-02-21T10:25:36;100088.31;;;12.02;55.96
83424;BME280;73355;49.044;8.686;2024-02-21T10:28:06;100086.38;;;12.03;56.27
83424;BME280;73355;49.044;8.686;2024-02-21T10:30:32;100089.78;;;12.14;56.42
83424;BME280;73355;49.044;8.686;2024-02-21T10:32:58;100083.13;;;12.19;56.25
83424;BME280;73355;49.044;8.686;2024-02-21T10:35:31;100078.41;;;12.23;56.30
83424;BME280;73355;49.044;8.686;2024-02-21T10:37:59;100078.72;;;12.28;56.06
83424;BME280;73355;49.044;8.686;2024-02-21T10:40:28;100074.78;;;12.33;55.99
83424;BME280;73355;49.044;8.686;2024-02-21T10:43:00;100062.59;;;12.41;56.34
83424;BME280;73355;49.044;8.686;2024-02-21T10:45:34;100066.75;;;12.53;55.74
83424;BME280;73355;49.044;8.686;2024-02-21T10:48:14;100060.41;;;12.63;55.51
83424;BME280;73355;49.044;8.686;2024-02-21T10:50:57;100053.31;;;12.69;55.17
83424;BME280;73355;49.044;8.686;2024-02-21T10:53:50;100050.59;;;12.65;54.30
83424;BME280;73355;49.044;8.686;2024-02-21T10:56:22;100047.47;;;12.67;54.65
83424;BME280;73355;49.044;8.686;2024-02-21T10:58:52;100040.38;;;12.73;54.74
83424;BME280;73355;49.044;8.686;2024-02-21T11:01:18;100040.38;;;12.73;54.00
83424;BME280;73355;49.044;8.686;2024-02-21T11:03:54;100028.66;;;12.72;53.70
83424;BME280;73355;49.044;8.686;2024-02-21T11:06:21;100029.38;;;12.76;53.80
83424;BME280;73355;49.044;8.686;2024-02-21T11:08:48;100024.28;;;12.78;53.42
83424;BME280;73355;49.044;8.686;2024-02-21T11:11:24;100021.19;;;12.76;53.65
83424;BME280;73355;49.044;8.686;2024-02-21T11:13:49;100013.78;;;12.77;53.73
83424;BME280;73355;49.044;8.686;2024-02-21T11:16:22;100007.91;;;12.78;53.72
83424;BME280;73355;49.044;8.686;2024-02-21T11:18:48;100004.00;;;12.79;53.62
83424;BME280;73355;49.044;8.686;2024-02-21T11:21:13;100011.72;;;12.84;53.70
83424;BME280;73355;49.044;8.686;2024-02-21T11:23:38;100004.34;;;12.81;52.50
83424;BME280;73355;49.044;8.686;2024-02-21T11:26:27;99998.16;;;12.77;52.53
83424;BME280;73355;49.044;8.686;2024-02-21T11:29:00;99991.59;;;12.71;52.58
83424;BME280;73355;49.044;8.686;2024-02-21T11:31:26;99990.34;;;12.79;52.46
83424;BME280;73355;49.044;8.686;2024-02-21T11:33:54;99988.06;;;12.74;52.31
83424;BME280;73355;49.044;8.686;2024-02-21T11:36:49;99983.78;;;12.73;52.57
83424;BME280;73355;49.044;8.686;2024-02-21T11:39:19;99972.00;;;12.80;52.46
83424;BME280;73355;49.044;8.686;2024-02-21T11:41:47;99963.69;;;12.87;52.17
83424;BME280;73355;49.044;8.686;2024-02-21T11:44:13;99953.78;;;12.97;52.55
83424;BME280;73355;49.044;8.686;2024-02-21T11:46:41;99955.13;;;13.12;52.29
83424;BME280;73355;49.044;8.686;2024-02-21T11:49:07;99947.91;;;13.25;52.21
83424;BME280;73355;49.044;8.686;2024-02-21T11:51:32;99942.25;;;13.36;51.44
83424;BME280;73355;49.044;8.686;2024-02-21T11:53:57;99939.41;;;13.43;51.27
83424;BME280;73355;49.044;8.686;2024-02-21T11:56:23;99940.47;;;13.49;50.88
83424;BME280;73355;49.044;8.686;2024-02-21T11:58:48;99923.22;;;13.52;50.37
83424;BME280;73355;49.044;8.686;2024-02-21T12:01:20;99916.69;;;13.46;49.68
83424;BME280;73355;49.044;8.686;2024-02-21T12:03:45;99908.38;;;13.30;49.37
83424;BME280;73355;49.044;8.686;2024-02-21T12:06:16;99902.03;;;13.13;49.30
83424;BME280;73355;49.044;8.686;2024-02-21T12:08:45;99900.09;;;13.10;50.19
83424;BME280;73355;49.044;8.686;2024-02-21T12:11:29;99898.13;;;13.10;50.07
83424;BME280;73355;49.044;8.686;2024-02-21T12:14:04;99891.19;;;13.06;50.48
83424;BME280;73355;49.044;8.686;2024-02-21T12:16:31;99880.00;;;12.97;49.59
83424;BME280;73355;49.044;8.686;2024-02-21T12:18:57;99878.88;;;12.94;50.06
83424;BME280;73355;49.044;8.686;2024-02-21T12:21:24;99873.38;;;12.98;49.81
83424;BME280;73355;49.044;8.686;2024-02-21T12:23:52;99867.44;;;13.03;50.05
83424;BME280;73355;49.044;8.686;2024-02-21T12:26:18;99867.75;;;13.05;49.90
83424;BME280;73355;49.044;8.686;2024-02-21T12:28:43;99857.97;;;13.07;49.40
83424;BME280;73355;49.044;8.686;2024-02-21T12:31:08;99859.88;;;13.10;49.51
83424;BME280;73355;49.044;8.686;2024-02-21T12:33:33;99851.66;;;13.14;49.53
83424;BME280;73355;49.044;8.686;2024-02-21T12:36:00;99850.09;;;13.13;49.54
83424;BME280;73355;49.044;8.686;2024-02-21T12:38:31;99835.94;;;13.18;49.88
83424;BME280;73355;49.044;8.686;2024-02-21T12:40:57;99832.72;;;13.23;49.83
83424;BME280;73355;49.044;8.686;2024-02-21T12:43:23;99827.22;;;13.27;49.61
83424;BME280;73355;49.044;8.686;2024-02-21T12:45:48;99822.81;;;13.33;49.62
83424;BME280;73355;49.044;8.686;2024-02-21T12:48:14;99824.63;;;13.39;49.83
83424;BME280;73355;49.044;8.686;2024-02-21T12:50:52;99818.31;;;13.42;49.01
83424;BME280;73355;49.044;8.686;2024-02-21T12:53:19;99812.91;;;13.39;47.99
83424;BME280;73355;49.044;8.686;2024-02-21T12:55:46;99812.97;;;13.35;47.96
83424;BME280;73355;49.044;8.686;2024-02-21T12:58:11;99810.66;;;13.34;47.88
83424;BME280;73355;49.044;8.686;2024-02-21T13:00:39;99801.75;;;13.30;47.59